Time;durP1;ratioP1;P1;durP2;ratioP2;P2;SDS_P1;SDS_P2;PMS_P1;PMS_P2;Temp;Humidity;BMP_temperature;BMP_pressure;BME280_temperature;BME280_humidity;BME280_pressure;Samples;Min_cycle;Max_cycle;Signal;HPM_P1;HPM_P2
2022/01/26 00:06:42;;;;;;;28.92;17.82;;;;;;;3.46;99.58;101515.52;1632806;87;25871;-75
2022/01/26 00:09:09;;;;;;;31.00;17.93;;;;;;;3.48;99.63;101510.94;1632593;87;25780;-76
2022/01/26 00:11:37;;;;;;;31.35;17.92;;;;;;;3.47;99.53;101510.09;1632480;86;27676;-75
2022/01/26 00:14:12;;;;;;;27.82;16.48;;;;;;;3.46;99.52;101510.22;1632255;87;26023;-76
2022/01/26 00:16:44;;;;;;;37.10;19.55;;;;;;;3.45;99.50;101517.31;1632638;87;26504;-75
2022/01/26 00:19:16;;;;;;;35.92;19.95;;;;;;;3.48;99.61;101511.79;1631621;87;25846;-76
2022/01/26 00:21:47;;;;;;;31.17;19.75;;;;;;;3.49;99.54;101516.58;1632263;87;26497;-76
2022/01/26 00:24:24;;;;;;;32.73;18.15;;;;;;;3.52;99.34;101511.91;1631531;87;28314;-76
2022/01/26 00:29:12;;;;;;;32.05;18.55;;;;;;;3.49;99.14;101508.64;1632216;87;25885;-76
2022/01/26 00:40:11;;;;;;;34.65;20.57;;;;;;;3.41;98.98;101506.59;1632449;86;25895;-75
2022/01/26 00:42:38;;;;;;;33.18;19.20;;;;;;;3.41;98.87;101509.72;1631992;87;25861;-75
2022/01/26 00:45:05;;;;;;;35.20;18.70;;;;;;;3.38;98.71;101504.17;1632571;86;26012;-75
2022/01/26 00:47:31;;;;;;;38.33;21.37;;;;;;;3.38;98.78;101513.44;1632516;87;25972;-76
2022/01/26 00:50:02;;;;;;;34.55;19.57;;;;;;;3.38;98.75;101503.36;1632074;86;27451;-76
2022/01/26 00:52:37;;;;;;;36.13;20.05;;;;;;;3.38;98.67;101502.84;1632034;86;25347;-76
2022/01/26 00:54:54;;;;;;;39.92;21.87;;;;;;;3.35;98.54;101507.55;1631293;87;26080;-76
2022/01/26 00:57:21;;;;;;;36.10;20.60;;;;;;;3.31;98.49;101502.98;1632499;87;26549;-76
2022/01/26 00:59:48;;;;;;;36.93;21.02;;;;;;;3.29;98.55;101505.38;1632453;86;25783;-75
2022/01/26 01:02:14;;;;;;;35.08;21.05;;;;;;;3.26;98.63;101508.25;1632569;87;27510;-75
2022/01/26 01:04:41;;;;;;;35.75;20.40;;;;;;;3.28;98.70;101503.68;1632508;87;26585;-76
2022/01/26 01:07:11;;;;;;;37.40;19.67;;;;;;;3.29;98.63;101508.03;1632777;87;25754;-75
2022/01/26 01:09:35;;;;;;;39.73;23.25;;;;;;;3.31;98.60;101505.63;1632201;86;26297;-76
2022/01/26 01:12:03;;;;;;;42.50;23.25;;;;;;;3.32;98.52;101502.00;1632433;87;26543;-76
2022/01/26 01:14:35;;;;;;;34.25;20.20;;;;;;;3.32;98.48;101500.69;1632283;87;27485;-76
2022/01/26 01:17:02;;;;;;;43.02;23.55;;;;;;;3.31;98.35;101495.52;1632072;87;26363;-75
2022/01/26 01:20:00;;;;;;;34.88;20.55;;;;;;;3.27;98.33;101492.27;1632148;86;25907;-75
2022/01/26 01:27:56;;;;;;;37.20;21.65;;;;;;;3.20;98.34;101490.20;1632944;87;27457;-75
2022/01/26 01:32:54;;;;;;;38.20;20.57;;;;;;;3.21;98.33;101480.80;1632640;87;25843;-76
2022/01/26 01:35:19;;;;;;;39.53;20.77;;;;;;;3.21;98.27;101474.69;1632313;87;25774;-76
2022/01/26 01:37:46;;;;;;;39.53;21.30;;;;;;;3.20;98.25;101478.28;1633485;87;25931;-76
2022/01/26 01:40:13;;;;;;;43.48;21.17;;;;;;;3.20;98.31;101475.64;1633294;86;27576;-76
2022/01/26 01:42:39;;;;;;;41.85;23.00;;;;;;;3.21;98.25;101478.66;1632551;87;26460;-75
2022/01/26 01:45:06;;;;;;;40.33;21.62;;;;;;;3.22;98.23;101477.69;1632208;87;25604;-76
2022/01/26 01:47:33;;;;;;;39.88;23.65;;;;;;;3.23;98.18;101481.53;1632594;87;25856;-76
2022/01/26 01:49:59;;;;;;;37.60;20.72;;;;;;;3.23;98.12;101484.68;1631996;86;25928;-76
2022/01/26 01:52:27;;;;;;;44.73;21.60;;;;;;;3.23;98.07;101486.82;1632500;87;27411;-76
2022/01/26 01:55:02;;;;;;;40.20;22.00;;;;;;;3.20;98.01;101484.91;1632281;86;26511;-75
2022/01/26 01:57:23;;;;;;;37.90;19.35;;;;;;;3.21;98.01;101483.45;1631444;87;25900;-75
2022/01/26 01:59:50;;;;;;;36.70;19.98;;;;;;;3.17;97.95;101476.70;1608067;87;25983;-76
2022/01/26 02:02:17;;;;;;;34.48;17.87;;;;;;;3.15;97.99;101479.95;1632359;87;26025;-75
2022/01/26 02:04:44;;;;;;;36.10;18.55;;;;;;;3.12;97.99;101476.24;1632377;87;27474;-76
2022/01/26 02:07:12;;;;;;;34.20;18.52;;;;;;;3.10;97.99;101472.37;1632423;87;25869;-76
2022/01/26 02:09:39;;;;;;;34.45;19.77;;;;;;;3.07;97.95;101476.59;1632151;86;25922;-76
2022/01/26 02:12:15;;;;;;;34.92;19.67;;;;;;;3.07;98.06;101473.09;1632359;87;26667;-76
2022/01/26 02:14:47;;;;;;;37.73;20.65;;;;;;;3.06;98.02;101476.21;1632171;87;26579;-76
2022/01/26 02:20:24;;;;;;;36.77;20.70;;;;;;;3.06;98.01;101462.12;1632382;86;25866;-76
2022/01/26 02:50:36;;;;;;;31.57;16.32;;;;;;;2.94;97.90;101462.61;1632370;86;25889;-75
2022/01/26 02:53:21;;;;;;;36.60;17.07;;;;;;;2.92;97.91;101460.56;1630536;87;26619;-76
2022/01/26 02:55:37;;;;;;;29.30;16.02;;;;;;;2.93;97.95;101452.96;1630466;87;26099;-75
2022/01/26 03:01:07;;;;;;;32.58;17.02;;;;;;;2.89;97.95;101457.28;1632617;86;25898;-75
2022/01/26 03:03:28;;;;;;;26.15;15.50;;;;;;;2.88;98.02;101461.75;1630903;87;25838;-76
2022/01/26 03:05:59;;;;;;;32.15;17.95;;;;;;;2.87;98.02;101459.20;1632141;87;26498;-76
2022/01/26 03:08:30;;;;;;;32.70;17.10;;;;;;;2.89;98.10;101454.63;1632193;86;25952;-76
2022/01/26 03:10:54;;;;;;;30.02;16.70;;;;;;;2.90;98.09;101460.30;1631649;86;27486;-76
2022/01/26 03:13:23;;;;;;;29.27;16.52;;;;;;;2.91;98.02;101461.97;1631749;87;25965;-76
2022/01/26 03:15:54;;;;;;;28.42;16.67;;;;;;;2.91;97.95;101458.86;1631918;87;25875;-76
2022/01/26 03:18:35;;;;;;;31.60;16.30;;;;;;;2.93;97.96;101461.41;1631936;86;26685;-76
2022/01/26 03:20:46;;;;;;;27.82;16.00;;;;;;;2.92;97.81;101455.73;1630630;86;26019;-76
2022/01/26 03:28:42;;;;;;;29.12;16.07;;;;;;;2.90;97.87;101450.57;1624476;87;25884;-76
2022/01/26 03:33:55;;;;;;;30.43;17.73;;;;;;;2.93;97.92;101447.67;1632673;86;25999;-76
2022/01/26 03:36:15;;;;;;;28.25;16.45;;;;;;;2.95;97.90;101455.02;1631761;87;27658;-76
2022/01/26 03:38:49;;;;;;;28.70;16.10;;;;;;;2.96;97.86;101448.77;1632366;87;26547;-76
2022/01/26 03:41:28;;;;;;;29.55;15.38;;;;;;;2.95;97.67;101444.94;1631867;86;25755;-76
2022/01/26 03:43:42;;;;;;;31.23;16.60;;;;;;;2.93;97.60;101442.38;1629663;86;25927;-76
2022/01/26 03:46:09;;;;;;;31.00;16.55;;;;;;;2.92;97.62;101443.83;1632426;87;26621;-75
2022/01/26 03:48:36;;;;;;;30.55;16.32;;;;;;;2.91;97.66;101450.92;1632588;87;27462;-76
2022/01/26 03:51:03;;;;;;;32.33;16.27;;;;;;;2.91;97.56;101458.00;1632035;86;26655;-76
2022/01/26 03:53:30;;;;;;;33.95;17.45;;;;;;;2.90;97.62;101454.54;1632147;87;25819;-76
2022/01/26 03:55:56;;;;;;;34.92;18.45;;;;;;;2.89;97.64;101452.84;1632367;87;25885;-76
2022/01/26 03:58:23;;;;;;;35.73;19.10;;;;;;;2.89;97.63;101458.13;1632494;87;25880;-76
2022/01/26 04:00:49;;;;;;;33.42;17.98;;;;;;;2.89;97.57;101460.78;1632327;86;27464;-76
2022/01/26 04:03:15;;;;;;;32.05;18.07;;;;;;;2.86;97.49;101461.03;1632143;87;25791;-76
2022/01/26 04:05:43;;;;;;;37.53;18.48;;;;;;;2.85;97.53;101457.16;1632563;87;25903;-75
2022/01/26 04:08:18;;;;;;;32.42;18.60;;;;;;;2.84;97.59;101456.34;1632235;87;25914;-76
2022/01/26 04:13:04;;;;;;;33.45;18.73;;;;;;;2.82;97.56;101458.73;1631915;87;27497;-76
2022/01/26 04:15:34;;;;;;;35.60;18.60;;;;;;;2.79;97.55;101461.13;1632238;87;26431;-76
2022/01/26 04:17:59;;;;;;;34.73;20.23;;;;;;;2.81;97.66;101460.99;1632150;87;26542;-76
2022/01/26 04:20:31;;;;;;;35.98;20.62;;;;;;;2.80;97.67;101451.39;1632360;86;25857;-75
2022/01/26 04:23:08;;;;;;;41.75;20.62;;;;;;;2.78;97.62;101445.38;1632090;87;25780;-75
2022/01/26 04:25:26;;;;;;;43.10;20.85;;;;;;;2.78;97.74;101446.19;1630580;87;27672;-75
2022/01/26 04:27:55;;;;;;;37.50;20.25;;;;;;;2.81;97.73;101446.45;1632040;87;25922;-76
2022/01/26 04:30:20;;;;;;;35.05;18.67;;;;;;;2.79;97.56;101451.86;1632003;86;25919;-76
2022/01/26 04:32:46;;;;;;;36.08;19.40;;;;;;;2.80;97.66;101450.06;1607947;87;25986;-76
2022/01/26 04:35:12;;;;;;;35.00;19.45;;;;;;;2.78;97.53;101446.19;1632423;87;25809;-76
2022/01/26 04:40:23;;;;;;;38.05;20.23;;;;;;;2.76;97.64;101443.33;1632651;86;25840;-76
2022/01/26 04:42:56;;;;;;;35.68;18.92;;;;;;;2.76;97.66;101448.62;1632141;87;26464;-76
2022/01/26 04:45:17;;;;;;;33.35;19.82;;;;;;;2.72;97.56;101450.63;1632301;87;26421;-75
2022/01/26 04:47:43;;;;;;;42.45;19.85;;;;;;;2.72;97.61;101447.98;1632727;87;25755;-76
2022/01/26 04:50:11;;;;;;;35.43;19.48;;;;;;;2.74;97.59;101453.15;1632447;86;27460;-76
2022/01/26 04:52:38;;;;;;;39.05;19.80;;;;;;;2.71;97.59;101447.64;1632566;87;25797;-76
2022/01/26 04:55:06;;;;;;;33.83;18.87;;;;;;;2.71;97.66;101444.99;1617360;87;26592;-76
2022/01/26 04:57:33;;;;;;;33.35;18.05;;;;;;;2.70;97.52;101447.26;1632165;87;25851;-76
2022/01/26 04:59:59;;;;;;;34.65;18.57;;;;;;;2.69;97.58;101445.59;1632600;86;25828;-76
2022/01/26 05:02:25;;;;;;;35.68;19.02;;;;;;;2.69;97.67;101444.27;1632359;87;27488;-76
2022/01/26 05:04:51;;;;;;;33.45;19.42;;;;;;;2.71;97.73;101441.50;1632441;87;25779;-76
2022/01/26 05:07:17;;;;;;;33.48;18.17;;;;;;;2.73;97.63;101440.90;1632775;87;25962;-76
2022/01/26 05:09:44;;;;;;;34.03;17.60;;;;;;;2.72;97.60;101429.47;1632353;86;26568;-76
2022/01/26 05:12:12;;;;;;;36.10;19.25;;;;;;;2.71;97.53;101430.44;1632441;87;25862;-76
2022/01/26 05:14:40;;;;;;;30.88;17.23;;;;;;;2.70;97.52;101422.12;1632641;87;27493;-76
2022/01/26 05:17:06;;;;;;;31.65;17.07;;;;;;;2.68;97.42;101428.48;1632583;87;26016;-76
2022/01/26 05:19:33;;;;;;;32.15;17.52;;;;;;;2.68;97.49;101430.66;1632617;86;25840;-76
2022/01/26 05:21:59;;;;;;;25.55;15.25;;;;;;;2.67;97.38;101430.31;1632495;85;26577;-76
2022/01/26 05:24:25;;;;;;;27.45;15.08;;;;;;;2.69;97.55;101423.58;1632792;87;26531;-76
2022/01/26 05:26:51;;;;;;;29.52;15.45;;;;;;;2.68;97.36;101423.20;1632506;87;27538;-76
2022/01/26 05:29:17;;;;;;;23.47;14.07;;;;;;;2.68;97.42;101420.55;1632554;86;25987;-76
2022/01/26 05:31:44;;;;;;;26.60;14.35;;;;;;;2.64;97.31;101419.95;1632389;87;26627;-76
2022/01/26 05:34:10;;;;;;;31.27;14.58;;;;;;;2.63;97.37;101414.28;1632949;87;25816;-76
2022/01/26 05:36:36;;;;;;;26.90;16.17;;;;;;;2.62;97.33;101411.77;1632545;87;25799;-75
2022/01/26 05:39:03;;;;;;;26.50;14.85;;;;;;;2.60;97.46;101415.02;1632426;87;27464;-76
2022/01/26 05:41:30;;;;;;;27.48;15.32;;;;;;;2.60;97.48;101413.69;1632132;86;25896;-76
2022/01/26 05:43:56;;;;;;;27.90;15.72;;;;;;;2.60;97.52;101418.50;1632041;87;25878;-76
2022/01/26 05:46:33;;;;;;;25.15;15.68;;;;;;;2.60;97.58;101421.15;1632156;87;26666;-75
2022/01/26 05:48:55;;;;;;;31.65;15.58;;;;;;;2.60;97.63;101414.54;1631695;87;26093;-76
2022/01/26 05:51:22;;;;;;;24.67;14.18;;;;;;;2.59;97.56;101415.48;1631936;86;28289;-75
2022/01/26 05:53:48;;;;;;;25.50;14.05;;;;;;;2.57;97.50;101413.44;1632185;87;25290;-76
2022/01/26 05:56:15;;;;;;;30.62;16.15;;;;;;;2.54;97.47;101418.97;1632221;87;25367;-76
2022/01/26 05:58:41;;;;;;;27.87;15.00;;;;;;;2.52;97.52;101420.05;1632388;87;25963;-76
2022/01/26 06:01:07;;;;;;;27.13;15.43;;;;;;;2.51;97.62;101414.38;1632474;86;25847;-75
2022/01/26 06:03:34;;;;;;;28.25;12.68;;;;;;;2.51;97.66;101406.44;1632432;87;27441;-76
2022/01/26 06:06:00;;;;;;;25.97;14.98;;;;;;;2.52;97.66;101402.38;1632284;87;25925;-76
2022/01/26 06:08:27;;;;;;;25.85;13.43;;;;;;;2.52;97.67;101407.67;1632339;87;26161;-76
2022/01/26 06:10:59;;;;;;;23.60;13.90;;;;;;;2.52;97.67;101402.38;1632271;86;25887;-76
2022/01/26 06:13:22;;;;;;;27.42;13.98;;;;;;;2.50;97.56;101404.30;1630932;87;25892;-75
2022/01/26 06:15:48;;;;;;;25.00;13.53;;;;;;;2.49;97.62;101397.31;1632336;87;28309;-76
2022/01/26 06:18:15;;;;;;;23.90;15.23;;;;;;;2.50;97.62;101405.63;1632189;87;25776;-76
2022/01/26 06:20:41;;;;;;;27.13;15.25;;;;;;;2.50;97.54;101410.06;1632356;86;26091;-76
2022/01/26 06:23:07;;;;;;;30.52;15.70;;;;;;;2.47;97.63;101406.31;1632921;87;26541;-76
2022/01/26 06:25:33;;;;;;;24.50;15.13;;;;;;;2.45;97.58;101406.44;1632941;87;26597;-76
2022/01/26 06:28:05;;;;;;;24.75;15.32;;;;;;;2.46;97.66;101405.97;1632809;87;27467;-75
2022/01/26 06:30:28;;;;;;;32.78;17.77;;;;;;;2.45;97.71;101405.11;1632462;86;25760;-76
2022/01/26 06:32:55;;;;;;;29.85;16.40;;;;;;;2.45;97.69;101401.62;1632823;87;25978;-76
2022/01/26 06:35:22;;;;;;;45.45;18.92;;;;;;;2.46;97.72;101402.81;1633597;87;26401;-76
2022/01/26 06:37:48;;;;;;;40.90;17.82;;;;;;;2.47;97.82;101404.98;1632750;87;26238;-77
2022/01/26 06:40:14;;;;;;;35.58;19.17;;;;;;;2.46;97.71;101398.84;1632196;86;28615;-76
2022/01/26 06:42:54;;;;;;;36.08;19.35;;;;;;;2.45;97.75;101397.18;1632236;87;25815;-76
2022/01/26 06:45:23;;;;;;;41.80;19.77;;;;;;;2.46;97.80;101406.78;1632631;87;25813;-75
2022/01/26 06:50:13;;;;;;;38.48;19.30;;;;;;;2.48;97.92;101413.30;1631628;87;26101;-76
2022/01/26 06:52:43;;;;;;;42.60;20.15;;;;;;;2.48;97.93;101409.33;1632823;87;27463;-75
2022/01/26 06:55:09;;;;;;;42.88;20.90;;;;;;;2.50;97.91;101415.34;1632372;87;25867;-76
2022/01/26 06:57:35;;;;;;;40.98;21.23;;;;;;;2.50;97.96;101412.23;1633347;87;25839;-76
2022/01/26 07:00:04;;;;;;;39.78;20.10;;;;;;;2.51;97.96;101407.77;1632740;87;25945;-76
2022/01/26 07:02:30;;;;;;;36.08;20.82;;;;;;;2.53;98.05;101412.45;1633122;85;26675;-76
2022/01/26 07:04:56;;;;;;;39.55;21.75;;;;;;;2.52;97.96;101407.67;1633107;87;27550;-76
2022/01/26 07:07:23;;;;;;;39.65;20.82;;;;;;;2.54;98.01;101411.52;1633088;87;26083;-75
2022/01/26 07:09:49;;;;;;;36.35;20.27;;;;;;;2.56;98.05;101409.59;1632945;87;25978;-76
2022/01/26 07:12:16;;;;;;;38.90;21.12;;;;;;;2.56;98.06;101409.13;1632938;87;25908;-76
2022/01/26 07:23:00;;;;;;;37.85;20.12;;;;;;;2.55;98.07;101403.92;1632729;87;25753;-76
2022/01/26 07:25:26;;;;;;;39.23;19.62;;;;;;;2.53;98.09;101397.44;1632910;87;25763;-76
2022/01/26 07:27:52;;;;;;;37.60;19.92;;;;;;;2.55;98.17;101394.67;1632998;87;25787;-76
2022/01/26 07:30:18;;;;;;;38.88;18.42;;;;;;;2.52;98.14;101397.09;1633082;87;27532;-76
2022/01/26 07:32:45;;;;;;;38.40;21.68;;;;;;;2.51;98.18;101394.07;1632821;87;25860;-76
2022/01/26 07:35:11;;;;;;;43.20;21.60;;;;;;;2.54;98.30;101399.61;1633045;87;25875;-76
2022/01/26 07:37:38;;;;;;;40.58;20.60;;;;;;;2.54;98.26;101393.00;1632758;87;26433;-76
2022/01/26 07:40:09;;;;;;;45.78;22.32;;;;;;;2.54;98.32;101392.53;1632507;87;26570;-75
2022/01/26 07:42:37;;;;;;;43.40;22.55;;;;;;;2.54;98.29;101397.81;1632374;87;27481;-75
2022/01/26 07:45:07;;;;;;;40.63;22.45;;;;;;;2.57;98.41;101397.56;1632584;87;26472;-75
2022/01/26 07:47:34;;;;;;;43.33;23.02;;;;;;;2.58;98.43;101394.45;1637714;87;25814;-76
2022/01/26 07:50:04;;;;;;;46.95;24.57;;;;;;;2.58;98.35;101381.23;1636226;87;26017;-75
2022/01/26 07:52:35;;;;;;;;;;;;;;;2.58;98.35;101389.16;1640126;87;25757;-75
2022/01/26 07:54:58;;;;;;;47.65;24.12;;;;;;;2.59;98.34;101387.71;1606065;89;27538;-76
2022/01/26 07:57:26;;;;;;;49.53;25.55;;;;;;;2.56;98.46;101390.61;1637687;87;25920;-76
2022/01/26 07:59:55;;;;;;;40.83;24.27;;;;;;;2.60;98.52;101389.89;1636271;86;25865;-76
2022/01/26 08:02:21;;;;;;;45.08;22.87;;;;;;;2.63;98.57;101387.84;1637349;86;25839;-76
2022/01/26 08:04:48;;;;;;;45.80;22.52;;;;;;;2.67;98.65;101392.44;1636514;87;25742;-76
2022/01/26 08:07:14;;;;;;;35.52;18.87;;;;;;;2.71;98.62;101396.53;1637678;87;28432;-76
2022/01/26 08:09:44;;;;;;;41.53;21.48;;;;;;;2.75;98.62;101394.00;1636516;87;26510;-77
2022/01/26 08:12:12;;;;;;;39.18;21.12;;;;;;;2.75;98.55;101394.00;1637467;86;25803;-76
2022/01/26 08:14:39;;;;;;;34.08;20.45;;;;;;;2.77;98.45;101394.26;1637817;86;25754;-76
2022/01/26 08:17:06;;;;;;;37.70;19.73;;;;;;;2.80;98.62;101390.03;1637768;87;25824;-77
2022/01/26 08:19:32;;;;;;;37.13;20.25;;;;;;;2.80;98.27;101384.75;1606073;89;27533;-76
2022/01/26 08:22:01;;;;;;;38.73;20.92;;;;;;;2.80;98.24;101384.75;1637344;87;25918;-75
2022/01/26 08:24:29;;;;;;;43.42;22.55;;;;;;;2.82;98.28;101386.79;1636677;87;25896;-75
2022/01/26 08:26:58;;;;;;;41.48;21.65;;;;;;;2.86;98.41;101390.06;1637601;87;25991;-76
2022/01/26 08:29:29;;;;;;;37.53;21.05;;;;;;;2.92;98.55;101391.76;1637881;87;26539;-76
2022/01/26 08:31:53;;;;;;;40.43;21.70;;;;;;;2.97;98.57;101392.22;1636119;86;47032;-76
2022/01/26 08:34:19;;;;;;;38.98;19.23;;;;;;;3.00;98.38;101397.30;1637697;87;25817;-76
2022/01/26 08:36:46;;;;;;;33.18;19.27;;;;;;;3.02;98.18;101398.02;1636862;87;25750;-76
2022/01/26 08:39:12;;;;;;;35.55;17.82;;;;;;;3.03;98.14;101394.89;1637417;87;26536;-76
2022/01/26 08:41:39;;;;;;;29.00;16.02;;;;;;;3.06;98.17;101398.13;1637709;87;25917;-76
2022/01/26 08:44:05;;;;;;;24.45;16.12;;;;;;;3.10;98.01;101401.41;1636809;86;27472;-76
2022/01/26 08:46:31;;;;;;;30.15;15.18;;;;;;;3.10;97.58;101391.64;1637482;87;26572;-76
2022/01/26 08:48:57;;;;;;;27.13;14.50;;;;;;;3.09;97.34;101396.59;1636815;87;25799;-75
2022/01/26 08:51:24;;;;;;;28.30;15.30;;;;;;;3.09;97.19;101393.94;1637210;87;26639;-76
2022/01/26 08:53:50;;;;;;;25.88;13.72;;;;;;;3.10;96.98;101381.55;1636519;87;25774;-76
2022/01/26 08:56:19;;;;;;;27.58;15.08;;;;;;;3.10;97.00;101386.84;1637928;86;26972;-76
2022/01/26 08:58:45;;;;;;;25.50;13.48;;;;;;;3.14;97.20;101383.81;1637617;87;25929;-76
2022/01/26 09:01:12;;;;;;;25.48;13.00;;;;;;;3.20;97.10;101382.98;1637353;86;25800;-76
2022/01/26 09:03:39;;;;;;;26.52;14.30;;;;;;;3.21;96.66;101386.82;1636516;87;25860;-76
2022/01/26 09:06:07;;;;;;;31.07;14.90;;;;;;;3.23;96.46;101382.75;1637908;87;25784;-76
2022/01/26 09:08:34;;;;;;;25.45;12.35;;;;;;;3.25;96.61;101381.64;1637368;86;28044;-76
2022/01/26 09:11:03;;;;;;;27.93;13.50;;;;;;;3.28;96.55;101380.09;1636533;87;25921;-77
2022/01/26 09:13:32;;;;;;;23.47;12.33;;;;;;;3.31;96.37;101375.89;1637519;85;25964;-76
2022/01/26 09:16:06;;;;;;;23.40;12.60;;;;;;;3.37;96.24;101374.55;1636672;87;26577;-75
2022/01/26 09:18:49;;;;;;;25.92;11.57;;;;;;;3.39;96.22;101378.77;1637565;87;25830;-76
2022/01/26 09:21:06;;;;;;;25.65;11.85;;;;;;;3.42;95.94;101386.45;1635983;86;27459;-76
2022/01/26 09:23:33;;;;;;;21.30;11.50;;;;;;;3.42;95.68;101378.50;1637342;86;25749;-76
2022/01/26 09:25:59;;;;;;;18.48;11.93;;;;;;;3.46;95.69;101389.72;1637933;86;25930;-76
2022/01/26 09:28:26;;;;;;;25.50;12.07;;;;;;;3.48;95.73;101381.16;1637482;85;26401;-76
2022/01/26 09:30:52;;;;;;;25.32;12.40;;;;;;;3.47;95.56;101367.55;1636565;87;25904;-76
2022/01/26 09:33:19;;;;;;;23.62;12.15;;;;;;;3.48;95.41;101367.45;1637702;87;27520;-76
2022/01/26 09:35:46;;;;;;;23.47;13.88;;;;;;;3.53;95.66;101370.55;1636911;87;26512;-75
2022/01/26 09:38:12;;;;;;;38.25;21.62;;;;;;;3.57;95.19;101366.69;1618170;87;26400;-76
2022/01/26 09:40:39;;;;;;;27.73;17.23;;;;;;;3.60;95.38;101362.48;1611242;88;26560;-75
2022/01/26 09:43:06;;;;;;;37.83;19.82;;;;;;;3.65;95.37;101354.16;1611036;88;25843;-76
2022/01/26 09:45:35;;;;;;;66.92;34.20;;;;;;;3.66;95.11;101355.83;1610448;88;28287;-76
2022/01/26 09:48:03;;;;;;;42.23;27.35;;;;;;;3.70;95.08;101354.14;1609860;88;26380;-76
2022/01/26 09:50:30;;;;;;;35.55;22.55;;;;;;;3.72;95.01;101359.34;1609877;87;26674;-76
2022/01/26 09:52:57;;;;;;;25.82;16.40;;;;;;;3.73;94.90;101353.90;1610009;88;25830;-76
2022/01/26 09:55:25;;;;;;;26.48;16.93;;;;;;;3.78;94.70;101353.53;1609920;88;25932;-75
2022/01/26 09:57:58;;;;;;;33.78;18.92;;;;;;;3.79;94.70;101356.52;1609843;88;27487;-76
2022/01/26 10:00:21;;;;;;;38.02;16.15;;;;;;;3.81;94.65;101353.27;1636039;86;25899;-75
2022/01/26 10:03:02;;;;;;;40.83;19.50;;;;;;;3.82;94.58;101353.63;1637658;87;25888;-76
2022/01/26 10:05:43;;;;;;;68.20;33.70;;;;;;;3.83;94.56;101351.33;1637036;87;25961;-75
2022/01/26 10:08:54;;;;;;;28.90;15.20;;;;;;;3.82;94.47;101348.34;1636831;86;25852;-76
2022/01/26 10:19:08;;;;;;;29.18;16.02;;;;;;;3.73;93.84;101335.83;1632081;86;25777;-76
2022/01/26 10:21:52;;;;;;;40.85;24.18;;;;;;;3.71;94.03;101335.97;1632333;86;25949;-76
2022/01/26 10:24:27;;;;;;;29.30;17.95;;;;;;;3.73;94.29;101332.70;1632386;87;27553;-76
2022/01/26 10:27:01;;;;;;;34.00;20.57;;;;;;;3.73;94.03;101334.50;1632288;87;26525;-76
2022/01/26 10:29:29;;;;;;;29.30;19.32;;;;;;;3.68;94.23;101328.73;1631957;86;25722;-76
2022/01/26 10:31:56;;;;;;;33.90;18.87;;;;;;;3.65;94.20;101332.49;1632209;87;25937;-76
2022/01/26 10:34:24;;;;;;;33.05;18.23;;;;;;;3.60;94.34;101329.36;1632371;87;26539;-76
2022/01/26 10:36:57;;;;;;;32.45;17.85;;;;;;;3.58;94.59;101327.33;1628616;87;28252;-76
2022/01/26 10:39:29;;;;;;;30.55;18.35;;;;;;;3.57;94.70;101326.95;1637526;86;26156;-76
2022/01/26 10:42:00;;;;;;;33.08;18.25;;;;;;;3.56;94.85;101322.64;1606083;89;25792;-75
2022/01/26 10:44:44;;;;;;;37.23;23.10;;;;;;;3.54;94.99;101320.59;1632397;86;25805;-76
2022/01/26 10:47:08;;;;;;;37.48;23.92;;;;;;;3.53;94.96;101321.55;1631975;86;25954;-75
2022/01/26 10:52:23;;;;;;;35.78;23.00;;;;;;;3.56;95.38;101309.39;1632443;85;26419;-76
2022/01/26 10:54:50;;;;;;;29.98;19.95;;;;;;;3.55;95.33;101315.64;1632362;86;25871;-75
2022/01/26 10:57:18;;;;;;;25.62;17.95;;;;;;;3.53;95.26;101306.98;1632541;86;26343;-76
2022/01/26 10:59:48;;;;;;;28.67;17.20;;;;;;;3.50;95.28;101303.75;1632374;86;25761;-76
2022/01/26 11:02:24;;;;;;;;;;;;;;;3.48;95.38;101297.73;1635041;87;28237;-75
2022/01/26 11:04:44;;;;;;;31.75;18.23;;;;;;;3.44;95.43;101295.83;1630662;87;26150;-76
2022/01/26 11:07:14;;;;;;;27.15;17.42;;;;;;;3.40;95.58;101290.39;1632704;87;25861;-76
2022/01/26 11:09:46;;;;;;;32.43;19.90;;;;;;;3.40;95.69;101288.25;1632569;86;26486;-76
2022/01/26 11:12:17;;;;;;;29.63;18.32;;;;;;;3.42;95.93;101285.81;1632569;87;26583;-76
2022/01/26 11:14:57;;;;;;;37.55;21.23;;;;;;;3.44;96.09;101278.63;1632501;87;28305;-76
2022/01/26 11:17:33;;;;;;;132.52;71.00;;;;;;;3.40;95.83;101276.34;1632730;85;26019;-76
2022/01/26 11:20:00;;;;;;;107.95;62.62;;;;;;;3.40;96.16;101271.05;1632229;86;25757;-75
2022/01/26 11:22:30;;;;;;;119.93;77.65;;;;;;;3.42;96.36;101271.25;1632815;87;25878;-75
2022/01/26 11:25:08;;;;;;;62.48;42.80;;;;;;;3.45;96.47;101271.48;1632381;87;25861;-76
2022/01/26 11:27:38;;;;;;;53.25;40.65;;;;;;;3.49;96.61;101267.14;1632938;86;27469;-76
2022/01/26 11:30:32;;;;;;;44.33;31.55;;;;;;;3.49;96.56;101263.17;1632642;86;25772;-76
2022/01/26 11:33:06;;;;;;;62.27;34.27;;;;;;;3.49;96.59;101261.84;1618970;87;25975;-76
2022/01/26 11:35:35;;;;;;;48.00;33.73;;;;;;;3.54;96.83;101262.80;1628701;87;26658;-76
2022/01/26 11:38:29;;;;;;;36.85;26.20;;;;;;;3.54;96.80;101263.66;1632664;87;26118;-76
2022/01/26 11:46:32;;;;;;;41.37;24.72;;;;;;;3.50;97.09;101248.98;1631922;87;25776;-76
2022/01/26 11:49:06;;;;;;;36.53;25.05;;;;;;;3.51;97.08;101242.70;1631823;87;25937;-76
2022/01/26 11:51:46;;;;;;;40.52;25.75;;;;;;;3.49;96.98;101244.63;1632212;86;25888;-76
2022/01/26 11:54:20;;;;;;;63.45;36.68;;;;;;;3.50;97.24;101241.52;1632116;87;28052;-76
2022/01/26 11:57:07;;;;;;;49.35;26.27;;;;;;;3.50;97.18;101241.03;1630074;87;25945;-76
2022/01/26 11:59:36;;;;;;;35.15;21.15;;;;;;;3.50;97.31;101240.19;1631111;86;26521;-76
2022/01/26 12:02:08;;;;;;;39.48;22.27;;;;;;;3.48;97.30;101240.32;1632742;86;26016;-76
2022/01/26 12:04:33;;;;;;;34.43;20.12;;;;;;;3.48;97.52;101233.70;1632146;87;25859;-76
2022/01/26 12:07:21;;;;;;;33.28;20.92;;;;;;;3.46;97.45;101235.64;1632909;87;29383;-76
2022/01/26 12:09:40;;;;;;;29.07;19.02;;;;;;;3.48;97.61;101231.05;1631673;86;25899;-75
2022/01/26 12:12:09;;;;;;;28.00;17.45;;;;;;;3.49;97.68;101227.89;1632700;87;26633;-76
2022/01/26 12:14:36;;;;;;;29.57;18.90;;;;;;;3.50;97.82;101231.77;1632863;87;26333;-76
2022/01/26 12:17:09;;;;;;;32.65;19.35;;;;;;;3.50;97.68;101224.30;1633138;87;25812;-76
2022/01/26 12:19:45;;;;;;;26.17;15.98;;;;;;;3.50;97.80;101222.50;1632188;86;28366;-76
2022/01/26 12:34:17;;;;;;;39.27;23.20;;;;;;;3.57;98.31;101205.11;1632802;87;27501;-75
2022/01/26 12:36:48;;;;;;;35.45;20.17;;;;;;;3.58;98.29;101213.42;1629614;87;25837;-76
2022/01/26 12:39:01;;;;;;;27.77;17.17;;;;;;;3.61;98.46;101211.02;1629453;87;25908;-76
2022/01/26 12:41:33;;;;;;;25.30;15.38;;;;;;;3.61;98.39;101209.69;1632501;86;26229;-76
2022/01/26 12:44:08;;;;;;;28.25;16.62;;;;;;;3.62;98.48;101212.20;1632122;87;25867;-76
2022/01/26 12:46:37;;;;;;;28.92;16.20;;;;;;;3.64;98.49;101212.06;1632663;87;28471;-75
2022/01/26 12:49:16;;;;;;;25.75;16.65;;;;;;;3.64;98.58;101199.67;1632235;87;25803;-76
2022/01/26 12:51:47;;;;;;;26.12;14.90;;;;;;;3.67;98.64;101198.58;1632712;87;25880;-76
2022/01/26 12:54:15;;;;;;;25.35;14.75;;;;;;;3.64;98.70;101197.02;1632164;87;26779;-75
2022/01/26 12:56:42;;;;;;;32.98;19.07;;;;;;;3.64;98.84;101186.42;1632639;87;26544;-76
2022/01/26 12:59:16;;;;;;;31.87;17.52;;;;;;;3.66;99.02;101184.48;1632027;87;27464;-76
2022/01/26 13:01:45;;;;;;;31.97;19.02;;;;;;;3.69;99.08;101184.23;1632985;87;25956;-76
2022/01/26 13:04:19;;;;;;;46.05;21.45;;;;;;;3.72;99.25;101184.47;1632496;87;25866;-76
2022/01/26 13:06:51;;;;;;;102.25;40.20;;;;;;;3.73;99.50;101178.19;1631975;87;26574;-76
2022/01/26 13:09:30;;;;;;;160.97;66.20;;;;;;;3.73;99.45;101173.73;1632289;86;26415;-76
2022/01/26 13:11:59;;;;;;;74.10;37.50;;;;;;;3.78;99.59;101175.53;1632699;87;27529;-76
2022/01/26 13:14:32;;;;;;;54.93;34.38;;;;;;;3.83;99.67;101177.76;1632147;87;25931;-76